Terminal Aerodrome Forecast
Issued by NWS

Home | Current Version | Previous Version | Graphics & Text | Print | Product List | Glossary On
Versions: 1 2 3 4 5 6 7 8 9 10 11 12 13 14 15
129
FTUS41 KCLE 211731
TAFFDY
TAF
KFDY 211731Z 2118/2218 20014G22KT P6SM BKN025 OVC060
     FM211900 21014G22KT P6SM VCTS SCT015 OVC025CB
      TEMPO 2119/2121 2SM -TSRA BKN015CB
     FM212200 25014KT P6SM BKN035
     FM220500 24006KT 6SM BR OVC025=

USA.gov is the U.S. government's official web portal to all federal, state and local government web resources and services.